sensor_id;sensor_type;location;lat;lon;timestamp;temperature;humidity
12254;DHT22;6189;52.526;13.390;2023-04-07T00:01:37;10.00;62.00
12254;DHT22;6189;52.526;13.390;2023-04-07T00:04:23;9.90;62.00
12254;DHT22;6189;52.526;13.390;2023-04-07T00:07:10;9.80;62.10
12254;DHT22;6189;52.526;13.390;2023-04-07T00:09:55;9.80;61.80
12254;DHT22;6189;52.526;13.390;2023-04-07T00:12:41;9.80;61.90
12254;DHT22;6189;52.526;13.390;2023-04-07T00:15:27;9.70;61.90
12254;DHT22;6189;52.526;13.390;2023-04-07T00:18:13;9.70;62.30
12254;DHT22;6189;52.526;13.390;2023-04-07T00:20:58;9.70;62.40
12254;DHT22;6189;52.526;13.390;2023-04-07T00:23:45;9.70;62.40
12254;DHT22;6189;52.526;13.390;2023-04-07T00:26:32;9.70;62.50
12254;DHT22;6189;52.526;13.390;2023-04-07T00:29:17;9.70;61.90
12254;DHT22;6189;52.526;13.390;2023-04-07T00:32:03;9.60;62.00
12254;DHT22;6189;52.526;13.390;2023-04-07T00:34:49;9.60;62.60
12254;DHT22;6189;52.526;13.390;2023-04-07T00:37:34;9.60;62.00
12254;DHT22;6189;52.526;13.390;2023-04-07T00:40:22;9.60;62.10
12254;DHT22;6189;52.526;13.390;2023-04-07T00:43:07;9.60;62.40
12254;DHT22;6189;52.526;13.390;2023-04-07T00:45:53;9.60;62.10
12254;DHT22;6189;52.526;13.390;2023-04-07T00:48:39;9.50;62.00
12254;DHT22;6189;52.526;13.390;2023-04-07T00:51:25;9.40;62.50
12254;DHT22;6189;52.526;13.390;2023-04-07T00:54:11;9.40;62.80
12254;DHT22;6189;52.526;13.390;2023-04-07T00:56:58;9.40;62.50
12254;DHT22;6189;52.526;13.390;2023-04-07T00:59:44;9.40;62.60
12254;DHT22;6189;52.526;13.390;2023-04-07T01:02:32;9.50;62.30
12254;DHT22;6189;52.526;13.390;2023-04-07T01:05:22;9.40;62.10
12254;DHT22;6189;52.526;13.390;2023-04-07T01:08:15;9.40;62.30
12254;DHT22;6189;52.526;13.390;2023-04-07T01:11:06;9.40;62.10
12254;DHT22;6189;52.526;13.390;2023-04-07T01:13:54;9.40;62.50
12254;DHT22;6189;52.526;13.390;2023-04-07T01:16:45;9.40;62.30
12254;DHT22;6189;52.526;13.390;2023-04-07T01:19:34;9.30;62.70
12254;DHT22;6189;52.526;13.390;2023-04-07T01:22:25;9.20;62.50
12254;DHT22;6189;52.526;13.390;2023-04-07T01:25:42;9.30;62.50
12254;DHT22;6189;52.526;13.390;2023-04-07T01:28:43;9.40;62.50
12254;DHT22;6189;52.526;13.390;2023-04-07T01:31:36;9.40;62.20
12254;DHT22;6189;52.526;13.390;2023-04-07T01:34:25;9.40;62.30
12254;DHT22;6189;52.526;13.390;2023-04-07T01:37:11;9.20;62.00
12254;DHT22;6189;52.526;13.390;2023-04-07T01:39:57;9.30;63.20
12254;DHT22;6189;52.526;13.390;2023-04-07T01:42:43;9.30;62.50
12254;DHT22;6189;52.526;13.390;2023-04-07T01:45:31;9.20;62.20
12254;DHT22;6189;52.526;13.390;2023-04-07T01:48:20;9.30;62.50
12254;DHT22;6189;52.526;13.390;2023-04-07T01:51:06;9.30;62.20
12254;DHT22;6189;52.526;13.390;2023-04-07T01:53:55;9.20;62.10
12254;DHT22;6189;52.526;13.390;2023-04-07T01:56:41;9.10;62.00
12254;DHT22;6189;52.526;13.390;2023-04-07T01:59:27;9.10;62.50
12254;DHT22;6189;52.526;13.390;2023-04-07T02:02:12;9.10;62.70
12254;DHT22;6189;52.526;13.390;2023-04-07T02:05:03;9.00;63.10
12254;DHT22;6189;52.526;13.390;2023-04-07T02:07:52;8.90;62.90
12254;DHT22;6189;52.526;13.390;2023-04-07T02:10:40;8.90;63.90
12254;DHT22;6189;52.526;13.390;2023-04-07T02:13:26;8.90;63.40
12254;DHT22;6189;52.526;13.390;2023-04-07T02:16:13;9.00;63.00
12254;DHT22;6189;52.526;13.390;2023-04-07T02:18:59;9.00;63.10
12254;DHT22;6189;52.526;13.390;2023-04-07T02:21:47;9.00;63.80
12254;DHT22;6189;52.526;13.390;2023-04-07T02:24:36;9.00;63.70
12254;DHT22;6189;52.526;13.390;2023-04-07T02:27:21;9.00;63.60
12254;DHT22;6189;52.526;13.390;2023-04-07T02:30:08;9.00;63.00
12254;DHT22;6189;52.526;13.390;2023-04-07T02:32:53;9.00;63.60
12254;DHT22;6189;52.526;13.390;2023-04-07T02:35:39;9.00;63.60
12254;DHT22;6189;52.526;13.390;2023-04-07T02:38:26;9.00;63.70
12254;DHT22;6189;52.526;13.390;2023-04-07T02:41:11;9.00;63.80
12254;DHT22;6189;52.526;13.390;2023-04-07T02:43:57;9.00;63.80
12254;DHT22;6189;52.526;13.390;2023-04-07T02:46:43;8.70;64.80
12254;DHT22;6189;52.526;13.390;2023-04-07T02:49:29;8.70;65.10
12254;DHT22;6189;52.526;13.390;2023-04-07T02:52:14;8.70;65.00
12254;DHT22;6189;52.526;13.390;2023-04-07T02:55:02;8.70;65.00
12254;DHT22;6189;52.526;13.390;2023-04-07T02:57:48;8.80;64.70
12254;DHT22;6189;52.526;13.390;2023-04-07T03:00:33;8.80;65.00
12254;DHT22;6189;52.526;13.390;2023-04-07T03:03:19;8.70;65.00
12254;DHT22;6189;52.526;13.390;2023-04-07T03:06:05;8.60;65.00
12254;DHT22;6189;52.526;13.390;2023-04-07T03:08:52;8.70;65.00
12254;DHT22;6189;52.526;13.390;2023-04-07T03:11:39;8.60;65.70
12254;DHT22;6189;52.526;13.390;2023-04-07T03:14:25;8.60;65.90
12254;DHT22;6189;52.526;13.390;2023-04-07T03:17:11;8.60;65.20
12254;DHT22;6189;52.526;13.390;2023-04-07T03:19:57;8.60;65.40
12254;DHT22;6189;52.526;13.390;2023-04-07T03:22:43;8.70;65.50
12254;DHT22;6189;52.526;13.390;2023-04-07T03:25:30;8.60;65.20
12254;DHT22;6189;52.526;13.390;2023-04-07T03:28:17;8.70;65.00
12254;DHT22;6189;52.526;13.390;2023-04-07T03:31:02;8.40;65.80
12254;DHT22;6189;52.526;13.390;2023-04-07T03:33:48;8.50;65.90
12254;DHT22;6189;52.526;13.390;2023-04-07T03:36:34;8.40;66.10
12254;DHT22;6189;52.526;13.390;2023-04-07T03:39:20;8.50;65.40
12254;DHT22;6189;52.526;13.390;2023-04-07T03:42:06;8.60;66.30
12254;DHT22;6189;52.526;13.390;2023-04-07T03:44:53;8.50;66.30
12254;DHT22;6189;52.526;13.390;2023-04-07T03:47:39;8.50;66.20
12254;DHT22;6189;52.526;13.390;2023-04-07T03:50:24;8.50;66.50
12254;DHT22;6189;52.526;13.390;2023-04-07T03:53:10;8.50;66.30
12254;DHT22;6189;52.526;13.390;2023-04-07T03:55:56;8.50;66.30
12254;DHT22;6189;52.526;13.390;2023-04-07T03:58:42;8.50;66.00
12254;DHT22;6189;52.526;13.390;2023-04-07T04:01:29;8.40;66.20
12254;DHT22;6189;52.526;13.390;2023-04-07T04:04:15;8.50;66.30
12254;DHT22;6189;52.526;13.390;2023-04-07T04:07:00;8.50;66.40
12254;DHT22;6189;52.526;13.390;2023-04-07T04:09:46;8.50;66.30
12254;DHT22;6189;52.526;13.390;2023-04-07T04:12:32;8.50;66.20
12254;DHT22;6189;52.526;13.390;2023-04-07T04:15:18;8.50;66.30
12254;DHT22;6189;52.526;13.390;2023-04-07T04:18:05;8.50;66.50
12254;DHT22;6189;52.526;13.390;2023-04-07T04:20:50;8.50;67.00
12254;DHT22;6189;52.526;13.390;2023-04-07T04:23:36;8.30;67.40
12254;DHT22;6189;52.526;13.390;2023-04-07T04:26:21;8.30;67.90
12254;DHT22;6189;52.526;13.390;2023-04-07T04:29:09;8.30;67.50
12254;DHT22;6189;52.526;13.390;2023-04-07T04:31:55;8.30;67.70
12254;DHT22;6189;52.526;13.390;2023-04-07T04:34:42;8.20;68.20
12254;DHT22;6189;52.526;13.390;2023-04-07T04:37:28;8.20;68.40
12254;DHT22;6189;52.526;13.390;2023-04-07T04:40:14;8.00;69.00
12254;DHT22;6189;52.526;13.390;2023-04-07T04:42:59;8.20;68.50
12254;DHT22;6189;52.526;13.390;2023-04-07T04:45:49;8.30;68.10
12254;DHT22;6189;52.526;13.390;2023-04-07T04:48:35;8.20;68.60
12254;DHT22;6189;52.526;13.390;2023-04-07T04:51:22;8.20;69.00
12254;DHT22;6189;52.526;13.390;2023-04-07T04:54:09;8.10;69.30
12254;DHT22;6189;52.526;13.390;2023-04-07T04:56:55;8.00;69.40
12254;DHT22;6189;52.526;13.390;2023-04-07T04:59:40;8.00;69.60
12254;DHT22;6189;52.526;13.390;2023-04-07T05:02:26;8.10;69.50
12254;DHT22;6189;52.526;13.390;2023-04-07T05:05:12;8.00;69.50
12254;DHT22;6189;52.526;13.390;2023-04-07T05:07:59;8.00;70.00
12254;DHT22;6189;52.526;13.390;2023-04-07T05:10:45;8.00;70.20
12254;DHT22;6189;52.526;13.390;2023-04-07T05:13:30;8.10;69.90
12254;DHT22;6189;52.526;13.390;2023-04-07T05:16:16;8.00;70.40
12254;DHT22;6189;52.526;13.390;2023-04-07T05:19:02;8.00;70.20
12254;DHT22;6189;52.526;13.390;2023-04-07T05:21:48;8.10;70.20
12254;DHT22;6189;52.526;13.390;2023-04-07T05:24:35;7.90;71.20
12254;DHT22;6189;52.526;13.390;2023-04-07T05:27:20;8.00;71.20
12254;DHT22;6189;52.526;13.390;2023-04-07T05:30:07;8.00;71.10
12254;DHT22;6189;52.526;13.390;2023-04-07T05:32:53;8.00;70.90
12254;DHT22;6189;52.526;13.390;2023-04-07T05:35:38;8.00;70.80
12254;DHT22;6189;52.526;13.390;2023-04-07T05:38:24;8.10;70.80
12254;DHT22;6189;52.526;13.390;2023-04-07T05:41:11;8.10;71.10
12254;DHT22;6189;52.526;13.390;2023-04-07T05:43:56;8.10;71.60
12254;DHT22;6189;52.526;13.390;2023-04-07T05:46:42;8.10;71.10
12254;DHT22;6189;52.526;13.390;2023-04-07T05:49:28;7.90;71.80
12254;DHT22;6189;52.526;13.390;2023-04-07T05:52:14;8.00;71.60
12254;DHT22;6189;52.526;13.390;2023-04-07T05:54:59;7.90;72.30
12254;DHT22;6189;52.526;13.390;2023-04-07T05:57:46;8.00;72.10
12254;DHT22;6189;52.526;13.390;2023-04-07T06:00:32;8.10;72.00
12254;DHT22;6189;52.526;13.390;2023-04-07T06:03:18;8.10;71.90
12254;DHT22;6189;52.526;13.390;2023-04-07T06:06:04;8.00;72.50
12254;DHT22;6189;52.526;13.390;2023-04-07T06:08:49;8.00;72.40
12254;DHT22;6189;52.526;13.390;2023-04-07T06:11:35;8.00;72.60
12254;DHT22;6189;52.526;13.390;2023-04-07T06:14:22;7.90;73.30
12254;DHT22;6189;52.526;13.390;2023-04-07T06:17:09;8.00;73.40
12254;DHT22;6189;52.526;13.390;2023-04-07T06:19:54;8.00;72.70
12254;DHT22;6189;52.526;13.390;2023-04-07T06:22:40;8.20;72.70
12254;DHT22;6189;52.526;13.390;2023-04-07T06:25:26;8.20;72.80
12254;DHT22;6189;52.526;13.390;2023-04-07T06:28:11;7.90;73.90
12254;DHT22;6189;52.526;13.390;2023-04-07T06:30:58;8.00;74.20
12254;DHT22;6189;52.526;13.390;2023-04-07T06:33:44;8.10;74.10
12254;DHT22;6189;52.526;13.390;2023-04-07T06:36:30;8.10;73.90
12254;DHT22;6189;52.526;13.390;2023-04-07T06:39:16;7.90;74.30
12254;DHT22;6189;52.526;13.390;2023-04-07T06:42:02;8.00;74.40
12254;DHT22;6189;52.526;13.390;2023-04-07T06:44:48;7.90;75.00
12254;DHT22;6189;52.526;13.390;2023-04-07T06:47:35;7.90;75.60
12254;DHT22;6189;52.526;13.390;2023-04-07T06:50:21;8.20;80.40
12254;DHT22;6189;52.526;13.390;2023-04-07T06:53:06;8.30;75.20
12254;DHT22;6189;52.526;13.390;2023-04-07T06:56:02;8.20;75.40
12254;DHT22;6189;52.526;13.390;2023-04-07T06:58:48;8.30;75.10
12254;DHT22;6189;52.526;13.390;2023-04-07T07:01:34;8.40;74.80
12254;DHT22;6189;52.526;13.390;2023-04-07T07:04:22;8.50;74.50
12254;DHT22;6189;52.526;13.390;2023-04-07T07:07:08;8.50;74.60
12254;DHT22;6189;52.526;13.390;2023-04-07T07:09:54;8.70;74.10
12254;DHT22;6189;52.526;13.390;2023-04-07T07:12:39;8.70;74.30
12254;DHT22;6189;52.526;13.390;2023-04-07T07:15:25;8.70;78.70
12254;DHT22;6189;52.526;13.390;2023-04-07T07:18:11;8.70;76.00
12254;DHT22;6189;52.526;13.390;2023-04-07T07:20:58;8.80;75.40
12254;DHT22;6189;52.526;13.390;2023-04-07T07:23:43;8.80;75.30
12254;DHT22;6189;52.526;13.390;2023-04-07T07:26:29;8.80;75.20
12254;DHT22;6189;52.526;13.390;2023-04-07T07:29:14;9.00;74.70
12254;DHT22;6189;52.526;13.390;2023-04-07T07:32:00;9.00;74.80
12254;DHT22;6189;52.526;13.390;2023-04-07T07:34:46;9.00;72.50
12254;DHT22;6189;52.526;13.390;2023-04-07T07:37:33;9.10;72.60
12254;DHT22;6189;52.526;13.390;2023-04-07T07:40:19;9.20;72.50
12254;DHT22;6189;52.526;13.390;2023-04-07T07:43:04;9.10;71.30
12254;DHT22;6189;52.526;13.390;2023-04-07T07:45:50;9.20;70.60
12254;DHT22;6189;52.526;13.390;2023-04-07T07:48:36;9.20;70.40
12254;DHT22;6189;52.526;13.390;2023-04-07T07:51:21;9.30;69.30
12254;DHT22;6189;52.526;13.390;2023-04-07T07:54:08;9.30;68.60
12254;DHT22;6189;52.526;13.390;2023-04-07T07:56:54;9.30;67.30
12254;DHT22;6189;52.526;13.390;2023-04-07T07:59:40;9.20;67.60
12254;DHT22;6189;52.526;13.390;2023-04-07T08:02:25;9.40;66.60
12254;DHT22;6189;52.526;13.390;2023-04-07T08:05:14;9.50;65.30
12254;DHT22;6189;52.526;13.390;2023-04-07T08:08:00;9.50;65.60
12254;DHT22;6189;52.526;13.390;2023-04-07T08:10:47;9.40;65.80
12254;DHT22;6189;52.526;13.390;2023-04-07T08:13:33;9.50;65.40
12254;DHT22;6189;52.526;13.390;2023-04-07T08:16:19;9.40;65.10
12254;DHT22;6189;52.526;13.390;2023-04-07T08:19:05;9.50;64.60
12254;DHT22;6189;52.526;13.390;2023-04-07T08:25:32;9.70;64.20
12254;DHT22;6189;52.526;13.390;2023-04-07T08:28:19;9.80;64.20
12254;DHT22;6189;52.526;13.390;2023-04-07T08:31:06;9.80;63.10
12254;DHT22;6189;52.526;13.390;2023-04-07T08:33:52;9.70;63.30
12254;DHT22;6189;52.526;13.390;2023-04-07T08:36:41;9.90;63.40
12254;DHT22;6189;52.526;13.390;2023-04-07T08:39:26;10.00;62.10
12254;DHT22;6189;52.526;13.390;2023-04-07T08:42:12;10.00;62.40
12254;DHT22;6189;52.526;13.390;2023-04-07T08:45:03;10.10;62.20
12254;DHT22;6189;52.526;13.390;2023-04-07T08:47:53;10.20;62.50
12254;DHT22;6189;52.526;13.390;2023-04-07T08:50:41;10.20;62.30
12254;DHT22;6189;52.526;13.390;2023-04-07T08:53:32;10.30;60.40
12254;DHT22;6189;52.526;13.390;2023-04-07T08:56:19;10.20;61.00
12254;DHT22;6189;52.526;13.390;2023-04-07T08:59:06;10.30;61.50
12254;DHT22;6189;52.526;13.390;2023-04-07T09:01:54;10.30;60.60
12254;DHT22;6189;52.526;13.390;2023-04-07T09:04:39;10.00;59.20
12254;DHT22;6189;52.526;13.390;2023-04-07T09:07:25;10.10;60.60
12254;DHT22;6189;52.526;13.390;2023-04-07T09:10:11;9.90;58.90
12254;DHT22;6189;52.526;13.390;2023-04-07T09:12:57;10.00;59.60
12254;DHT22;6189;52.526;13.390;2023-04-07T09:15:43;9.70;59.50
12254;DHT22;6189;52.526;13.390;2023-04-07T09:18:30;10.00;58.00
12254;DHT22;6189;52.526;13.390;2023-04-07T09:21:16;10.10;57.70
12254;DHT22;6189;52.526;13.390;2023-04-07T09:24:19;10.20;58.00
12254;DHT22;6189;52.526;13.390;2023-04-07T09:27:12;10.00;57.90
12254;DHT22;6189;52.526;13.390;2023-04-07T09:30:12;10.20;58.00
12254;DHT22;6189;52.526;13.390;2023-04-07T09:33:00;10.10;57.80
12254;DHT22;6189;52.526;13.390;2023-04-07T09:35:52;10.10;58.20
12254;DHT22;6189;52.526;13.390;2023-04-07T09:38:38;10.00;58.30
12254;DHT22;6189;52.526;13.390;2023-04-07T09:41:26;10.00;59.20
12254;DHT22;6189;52.526;13.390;2023-04-07T09:44:12;10.10;58.70
12254;DHT22;6189;52.526;13.390;2023-04-07T09:46:58;10.10;58.30
12254;DHT22;6189;52.526;13.390;2023-04-07T09:49:49;10.00;58.30
12254;DHT22;6189;52.526;13.390;2023-04-07T09:52:50;9.90;58.90
12254;DHT22;6189;52.526;13.390;2023-04-07T09:55:38;10.00;59.10
12254;DHT22;6189;52.526;13.390;2023-04-07T09:58:24;9.80;59.60
12254;DHT22;6189;52.526;13.390;2023-04-07T10:01:10;9.70;59.60
12254;DHT22;6189;52.526;13.390;2023-04-07T10:03:56;9.90;60.00
12254;DHT22;6189;52.526;13.390;2023-04-07T10:06:43;10.00;60.40
12254;DHT22;6189;52.526;13.390;2023-04-07T10:09:30;10.10;60.30
12254;DHT22;6189;52.526;13.390;2023-04-07T10:12:17;10.20;60.30
12254;DHT22;6189;52.526;13.390;2023-04-07T10:15:04;10.20;61.20
12254;DHT22;6189;52.526;13.390;2023-04-07T10:17:50;10.20;61.10
12254;DHT22;6189;52.526;13.390;2023-04-07T10:20:38;10.30;60.70
12254;DHT22;6189;52.526;13.390;2023-04-07T10:23:30;10.30;61.30
12254;DHT22;6189;52.526;13.390;2023-04-07T10:26:20;10.30;61.30
12254;DHT22;6189;52.526;13.390;2023-04-07T10:29:09;10.20;61.50
12254;DHT22;6189;52.526;13.390;2023-04-07T10:31:57;10.20;62.20
12254;DHT22;6189;52.526;13.390;2023-04-07T10:34:59;10.30;62.30
12254;DHT22;6189;52.526;13.390;2023-04-07T10:38:09;10.20;62.40
12254;DHT22;6189;52.526;13.390;2023-04-07T10:40:56;10.20;63.20
12254;DHT22;6189;52.526;13.390;2023-04-07T10:43:43;10.30;63.70
12254;DHT22;6189;52.526;13.390;2023-04-07T10:47:01;10.20;63.90
12254;DHT22;6189;52.526;13.390;2023-04-07T10:50:18;10.20;66.10
12254;DHT22;6189;52.526;13.390;2023-04-07T10:53:05;10.10;67.10
12254;DHT22;6189;52.526;13.390;2023-04-07T10:55:53;10.20;66.20
12254;DHT22;6189;52.526;13.390;2023-04-07T10:58:40;10.30;66.80
12254;DHT22;6189;52.526;13.390;2023-04-07T11:01:28;10.30;70.10
12254;DHT22;6189;52.526;13.390;2023-04-07T11:04:14;10.30;71.30
12254;DHT22;6189;52.526;13.390;2023-04-07T11:07:00;10.30;73.60
12254;DHT22;6189;52.526;13.390;2023-04-07T11:09:45;10.30;75.20
12254;DHT22;6189;52.526;13.390;2023-04-07T11:12:31;10.20;79.30
12254;DHT22;6189;52.526;13.390;2023-04-07T11:15:18;10.20;79.00
12254;DHT22;6189;52.526;13.390;2023-04-07T11:18:10;10.40;79.30
12254;DHT22;6189;52.526;13.390;2023-04-07T11:20:56;10.10;81.90
12254;DHT22;6189;52.526;13.390;2023-04-07T11:23:43;10.30;81.70
12254;DHT22;6189;52.526;13.390;2023-04-07T11:26:36;10.20;84.10
12254;DHT22;6189;52.526;13.390;2023-04-07T11:29:27;10.20;85.40
12254;DHT22;6189;52.526;13.390;2023-04-07T11:32:13;10.20;86.90
12254;DHT22;6189;52.526;13.390;2023-04-07T11:35:05;10.30;87.60
12254;DHT22;6189;52.526;13.390;2023-04-07T11:37:56;10.30;87.30
12254;DHT22;6189;52.526;13.390;2023-04-07T11:40:42;10.40;86.40
12254;DHT22;6189;52.526;13.390;2023-04-07T11:43:28;10.40;86.00
12254;DHT22;6189;52.526;13.390;2023-04-07T11:46:16;10.50;87.50
12254;DHT22;6189;52.526;13.390;2023-04-07T11:49:10;10.40;88.90
12254;DHT22;6189;52.526;13.390;2023-04-07T11:52:02;10.40;90.10
12254;DHT22;6189;52.526;13.390;2023-04-07T11:54:49;10.10;91.20
12254;DHT22;6189;52.526;13.390;2023-04-07T11:57:34;10.20;91.20
12254;DHT22;6189;52.526;13.390;2023-04-07T12:00:20;10.20;91.60
12254;DHT22;6189;52.526;13.390;2023-04-07T12:03:10;10.20;92.20
12254;DHT22;6189;52.526;13.390;2023-04-07T12:05:57;10.20;92.20
12254;DHT22;6189;52.526;13.390;2023-04-07T12:08:44;10.20;92.30
12254;DHT22;6189;52.526;13.390;2023-04-07T12:11:30;10.00;93.10
12254;DHT22;6189;52.526;13.390;2023-04-07T12:14:16;10.00;93.60
12254;DHT22;6189;52.526;13.390;2023-04-07T12:17:01;9.60;95.80
12254;DHT22;6189;52.526;13.390;2023-04-07T12:19:47;9.80;95.60
12254;DHT22;6189;52.526;13.390;2023-04-07T12:22:33;10.00;95.70
12254;DHT22;6189;52.526;13.390;2023-04-07T12:25:20;9.80;98.20
12254;DHT22;6189;52.526;13.390;2023-04-07T12:28:05;9.90;98.50
12254;DHT22;6189;52.526;13.390;2023-04-07T12:30:51;9.70;99.90
12254;DHT22;6189;52.526;13.390;2023-04-07T12:33:37;9.60;99.90
12254;DHT22;6189;52.526;13.390;2023-04-07T12:36:23;9.60;99.90
12254;DHT22;6189;52.526;13.390;2023-04-07T12:39:09;9.60;99.90
12254;DHT22;6189;52.526;13.390;2023-04-07T12:41:56;9.60;99.90
12254;DHT22;6189;52.526;13.390;2023-04-07T12:44:41;9.70;99.90
12254;DHT22;6189;52.526;13.390;2023-04-07T12:47:27;9.60;99.90
12254;DHT22;6189;52.526;13.390;2023-04-07T12:50:13;9.70;99.90
12254;DHT22;6189;52.526;13.390;2023-04-07T12:52:59;9.80;99.90
12254;DHT22;6189;52.526;13.390;2023-04-07T12:55:46;9.90;99.90
12254;DHT22;6189;52.526;13.390;2023-04-07T12:58:34;9.80;99.90
12254;DHT22;6189;52.526;13.390;2023-04-07T13:01:19;9.90;99.90
12254;DHT22;6189;52.526;13.390;2023-04-07T13:04:05;10.00;99.90
12254;DHT22;6189;52.526;13.390;2023-04-07T13:06:51;9.90;99.90
12254;DHT22;6189;52.526;13.390;2023-04-07T13:09:36;10.00;99.90
12254;DHT22;6189;52.526;13.390;2023-04-07T13:12:22;10.10;99.90
12254;DHT22;6189;52.526;13.390;2023-04-07T13:15:10;10.20;99.90
12254;DHT22;6189;52.526;13.390;2023-04-07T13:17:56;10.20;99.90
12254;DHT22;6189;52.526;13.390;2023-04-07T13:20:42;10.10;99.90
12254;DHT22;6189;52.526;13.390;2023-04-07T13:23:28;10.10;99.90
12254;DHT22;6189;52.526;13.390;2023-04-07T13:26:14;10.10;99.90
12254;DHT22;6189;52.526;13.390;2023-04-07T13:28:59;10.10;99.90
12254;DHT22;6189;52.526;13.390;2023-04-07T13:31:47;9.90;99.90
12254;DHT22;6189;52.526;13.390;2023-04-07T13:34:33;10.00;99.90
12254;DHT22;6189;52.526;13.390;2023-04-07T13:37:18;9.90;99.90
12254;DHT22;6189;52.526;13.390;2023-04-07T13:40:05;10.00;99.90
12254;DHT22;6189;52.526;13.390;2023-04-07T13:42:51;9.90;99.90
12254;DHT22;6189;52.526;13.390;2023-04-07T13:45:37;9.90;99.90
12254;DHT22;6189;52.526;13.390;2023-04-07T13:48:24;10.00;99.90
12254;DHT22;6189;52.526;13.390;2023-04-07T13:51:09;10.00;99.90
12254;DHT22;6189;52.526;13.390;2023-04-07T13:53:55;9.90;99.90
12254;DHT22;6189;52.526;13.390;2023-04-07T13:56:40;9.60;99.90
12254;DHT22;6189;52.526;13.390;2023-04-07T13:59:26;9.70;99.90
12254;DHT22;6189;52.526;13.390;2023-04-07T14:02:12;9.40;99.90
12254;DHT22;6189;52.526;13.390;2023-04-07T14:04:59;9.60;99.90
12254;DHT22;6189;52.526;13.390;2023-04-07T14:07:44;9.60;99.90
12254;DHT22;6189;52.526;13.390;2023-04-07T14:10:30;9.70;99.90
12254;DHT22;6189;52.526;13.390;2023-04-07T14:13:16;9.90;99.90
12254;DHT22;6189;52.526;13.390;2023-04-07T14:16:02;9.90;99.90
12254;DHT22;6189;52.526;13.390;2023-04-07T14:18:47;9.90;99.90
12254;DHT22;6189;52.526;13.390;2023-04-07T14:21:36;9.80;99.90
12254;DHT22;6189;52.526;13.390;2023-04-07T14:24:21;9.90;99.90
12254;DHT22;6189;52.526;13.390;2023-04-07T14:27:07;9.90;99.90
12254;DHT22;6189;52.526;13.390;2023-04-07T14:29:53;10.00;99.90
12254;DHT22;6189;52.526;13.390;2023-04-07T14:32:40;9.90;99.90
12254;DHT22;6189;52.526;13.390;2023-04-07T14:35:26;9.90;99.90
12254;DHT22;6189;52.526;13.390;2023-04-07T14:38:13;10.00;99.90
12254;DHT22;6189;52.526;13.390;2023-04-07T14:40:59;10.10;99.90
12254;DHT22;6189;52.526;13.390;2023-04-07T14:43:46;10.10;99.90
12254;DHT22;6189;52.526;13.390;2023-04-07T14:46:35;10.20;99.90
12254;DHT22;6189;52.526;13.390;2023-04-07T14:49:20;10.20;99.90
12254;DHT22;6189;52.526;13.390;2023-04-07T14:52:08;10.20;99.90
12254;DHT22;6189;52.526;13.390;2023-04-07T14:54:55;10.20;99.90
12254;DHT22;6189;52.526;13.390;2023-04-07T14:57:41;10.20;99.90
12254;DHT22;6189;52.526;13.390;2023-04-07T15:00:27;10.30;99.90
12254;DHT22;6189;52.526;13.390;2023-04-07T15:03:13;10.30;99.90
12254;DHT22;6189;52.526;13.390;2023-04-07T15:05:58;10.20;99.90
12254;DHT22;6189;52.526;13.390;2023-04-07T15:08:44;10.30;99.90
12254;DHT22;6189;52.526;13.390;2023-04-07T15:11:31;10.30;99.90
12254;DHT22;6189;52.526;13.390;2023-04-07T15:14:17;10.20;99.90
12254;DHT22;6189;52.526;13.390;2023-04-07T15:17:03;10.20;99.90
12254;DHT22;6189;52.526;13.390;2023-04-07T15:19:48;10.30;99.90
12254;DHT22;6189;52.526;13.390;2023-04-07T15:22:34;10.30;99.90
12254;DHT22;6189;52.526;13.390;2023-04-07T15:25:20;10.20;99.90
12254;DHT22;6189;52.526;13.390;2023-04-07T15:28:07;10.20;99.90
12254;DHT22;6189;52.526;13.390;2023-04-07T15:30:53;10.20;99.90
12254;DHT22;6189;52.526;13.390;2023-04-07T15:33:39;10.20;99.90
12254;DHT22;6189;52.526;13.390;2023-04-07T15:36:27;10.20;99.90
12254;DHT22;6189;52.526;13.390;2023-04-07T15:39:13;10.20;99.90
12254;DHT22;6189;52.526;13.390;2023-04-07T15:41:58;10.30;99.90
12254;DHT22;6189;52.526;13.390;2023-04-07T15:44:45;10.30;99.90
12254;DHT22;6189;52.526;13.390;2023-04-07T15:47:31;10.20;99.90
12254;DHT22;6189;52.526;13.390;2023-04-07T15:50:16;10.20;99.90
12254;DHT22;6189;52.526;13.390;2023-04-07T15:53:02;10.20;99.90
12254;DHT22;6189;52.526;13.390;2023-04-07T15:55:48;10.00;99.90
12254;DHT22;6189;52.526;13.390;2023-04-07T15:58:34;10.00;99.90
12254;DHT22;6189;52.526;13.390;2023-04-07T16:01:21;9.80;99.90
12254;DHT22;6189;52.526;13.390;2023-04-07T16:04:06;9.70;99.90
12254;DHT22;6189;52.526;13.390;2023-04-07T16:06:52;9.80;99.90
12254;DHT22;6189;52.526;13.390;2023-04-07T16:09:38;9.90;99.90
12254;DHT22;6189;52.526;13.390;2023-04-07T16:12:23;10.00;99.90
12254;DHT22;6189;52.526;13.390;2023-04-07T16:15:10;10.00;99.90
12254;DHT22;6189;52.526;13.390;2023-04-07T16:17:57;10.00;99.90
12254;DHT22;6189;52.526;13.390;2023-04-07T16:20:42;10.00;99.90
12254;DHT22;6189;52.526;13.390;2023-04-07T16:23:28;10.10;99.90
12254;DHT22;6189;52.526;13.390;2023-04-07T16:26:13;10.10;99.90
12254;DHT22;6189;52.526;13.390;2023-04-07T16:28:59;10.20;99.90
12254;DHT22;6189;52.526;13.390;2023-04-07T16:31:45;10.10;99.90
12254;DHT22;6189;52.526;13.390;2023-04-07T16:34:33;10.10;99.90
12254;DHT22;6189;52.526;13.390;2023-04-07T16:37:19;10.10;99.90
12254;DHT22;6189;52.526;13.390;2023-04-07T16:40:06;10.00;99.90
12254;DHT22;6189;52.526;13.390;2023-04-07T16:42:52;10.10;99.90
12254;DHT22;6189;52.526;13.390;2023-04-07T16:45:38;10.10;99.90
12254;DHT22;6189;52.526;13.390;2023-04-07T16:48:24;10.10;99.90
12254;DHT22;6189;52.526;13.390;2023-04-07T16:51:15;10.10;99.90
12254;DHT22;6189;52.526;13.390;2023-04-07T16:54:00;10.00;99.90
12254;DHT22;6189;52.526;13.390;2023-04-07T16:56:47;10.00;99.90
12254;DHT22;6189;52.526;13.390;2023-04-07T16:59:33;10.10;99.90
12254;DHT22;6189;52.526;13.390;2023-04-07T17:02:19;10.10;99.90
12254;DHT22;6189;52.526;13.390;2023-04-07T17:05:05;10.10;99.90
12254;DHT22;6189;52.526;13.390;2023-04-07T17:07:52;9.90;99.90
12254;DHT22;6189;52.526;13.390;2023-04-07T17:10:38;10.00;99.90
12254;DHT22;6189;52.526;13.390;2023-04-07T17:13:24;10.00;99.90
12254;DHT22;6189;52.526;13.390;2023-04-07T17:16:12;10.00;99.90
12254;DHT22;6189;52.526;13.390;2023-04-07T17:18:57;10.10;99.90
12254;DHT22;6189;52.526;13.390;2023-04-07T17:21:43;9.70;99.90
12254;DHT22;6189;52.526;13.390;2023-04-07T17:24:30;9.50;99.90
12254;DHT22;6189;52.526;13.390;2023-04-07T17:27:16;9.40;99.90
12254;DHT22;6189;52.526;13.390;2023-04-07T17:30:02;9.50;99.90
12254;DHT22;6189;52.526;13.390;2023-04-07T17:32:48;9.50;99.90
12254;DHT22;6189;52.526;13.390;2023-04-07T17:35:35;9.50;99.90
12254;DHT22;6189;52.526;13.390;2023-04-07T17:38:21;9.40;99.90
12254;DHT22;6189;52.526;13.390;2023-04-07T17:41:08;9.40;99.90
12254;DHT22;6189;52.526;13.390;2023-04-07T17:43:53;9.30;99.90
12254;DHT22;6189;52.526;13.390;2023-04-07T17:46:39;9.40;99.90
12254;DHT22;6189;52.526;13.390;2023-04-07T17:49:25;9.50;99.90